Time;durP1;ratioP1;P1;durP2;ratioP2;P2;SDS_P1;SDS_P2;PMS_P1;PMS_P2;Temp;Humidity;BMP_temperature;BMP_pressure;BME280_temperature;BME280_humidity;BME280_pressure;Samples;Min_cycle;Max_cycle;Signal;HPM_P1;HPM_P2
2022/07/07 00:01:26;;;;;;;0.00;0.00;;;22.40;53.10;;;;;;5112329;28;20548;-78
2022/07/07 00:03:53;;;;;;;0.00;0.00;;;22.50;52.20;;;;;;5095121;28;20115;-78
2022/07/07 00:06:19;;;;;;;0.10;0.10;;;22.60;52.70;;;;;;5094733;28;20034;-78
2022/07/07 00:08:47;;;;;;;0.00;0.00;;;22.80;50.00;;;;;;5111629;28;20020;-78
2022/07/07 00:11:15;;;;;;;0.65;0.65;;;22.90;49.90;;;;;;5113148;28;20054;-78
2022/07/07 00:13:42;;;;;;;0.00;0.00;;;23.00;50.30;;;;;;5113130;28;20492;-78
2022/07/07 00:16:08;;;;;;;0.00;0.00;;;23.20;50.20;;;;;;5114086;28;20055;-78
2022/07/07 00:18:34;;;;;;;0.00;0.00;;;23.00;51.90;;;;;;5095528;28;20028;-78
2022/07/07 00:21:00;;;;;;;0.00;0.00;;;23.10;50.00;;;;;;5094722;28;20023;-78
2022/07/07 00:23:27;;;;;;;0.00;0.00;;;23.40;49.90;;;;;;5095923;28;20023;-78
2022/07/07 00:25:53;;;;;;;0.00;0.00;;;23.50;49.70;;;;;;5113754;28;20082;-79
2022/07/07 00:28:19;;;;;;;0.00;0.00;;;23.50;49.70;;;;;;5093651;28;20024;-78
2022/07/07 00:30:45;;;;;;;0.00;0.00;;;23.40;50.70;;;;;;5105149;28;20429;-78
2022/07/07 00:33:11;;;;;;;0.00;0.00;;;23.40;50.80;;;;;;5112003;28;20027;-78
2022/07/07 00:35:38;;;;;;;0.00;0.00;;;23.40;51.90;;;;;;5098681;28;20034;-78
2022/07/07 00:38:04;;;;;;;0.00;0.00;;;23.40;52.20;;;;;;5098870;28;20038;-78
2022/07/07 00:40:31;;;;;;;0.00;0.00;;;23.50;52.40;;;;;;5100923;28;20035;-77
2022/07/07 00:43:00;;;;;;;0.00;0.00;;;23.80;51.10;;;;;;5121488;28;20030;-78
2022/07/07 00:45:26;;;;;;;0.00;0.00;;;24.00;53.30;;;;;;5099197;28;20031;-78
2022/07/07 00:47:52;;;;;;;0.75;0.75;;;23.90;53.60;;;;;;5116282;28;20089;-78
2022/07/07 00:50:19;;;;;;;1.85;0.40;;;24.20;53.50;;;;;;5116239;28;20028;-78
2022/07/07 00:52:47;;;;;;;0.00;0.00;;;24.50;53.10;;;;;;5116706;28;20012;-78
2022/07/07 00:55:13;;;;;;;0.20;0.20;;;24.50;53.40;;;;;;5094692;28;20043;-78
2022/07/07 00:57:40;;;;;;;0.30;0.30;;;24.70;54.80;;;;;;5095594;28;20059;-79
2022/07/07 01:00:10;;;;;;;0.08;0.08;;;25.10;53.20;;;;;;5095759;28;20106;-79
2022/07/07 01:02:36;;;;;;;0.00;0.00;;;25.70;50.70;;;;;;5094908;28;20051;-79
2022/07/07 01:05:05;;;;;;;0.00;0.00;;;26.10;50.50;;;;;;5095898;28;20097;-79
2022/07/07 01:07:32;;;;;;;0.00;0.00;;;26.20;49.20;;;;;;5094192;28;20118;-78
2022/07/07 01:09:59;;;;;;;0.00;0.00;;;26.50;48.30;;;;;;5090001;28;20022;-79
2022/07/07 01:12:32;;;;;;;0.40;0.40;;;26.50;50.90;;;;;;5095542;28;20077;-79
2022/07/07 01:14:58;;;;;;;2.80;2.70;;;26.20;52.10;;;;;;5095882;28;20055;-79
2022/07/07 01:17:24;;;;;;;0.00;0.00;;;26.10;51.50;;;;;;5096568;28;20384;-79
2022/07/07 01:19:50;;;;;;;0.00;0.00;;;25.90;52.40;;;;;;5099760;28;20408;-78
2022/07/07 01:22:17;;;;;;;0.00;0.00;;;26.00;52.20;;;;;;5098690;28;20020;-78
2022/07/07 01:24:43;;;;;;;0.00;0.00;;;26.30;50.10;;;;;;5101431;28;20020;-78
2022/07/07 01:27:15;;;;;;;0.00;0.00;;;26.90;48.30;;;;;;5102249;28;20054;-78
2022/07/07 01:29:44;;;;;;;0.00;0.00;;;27.20;45.40;;;;;;5099488;28;20028;-79
2022/07/07 01:32:11;;;;;;;0.25;0.25;;;27.40;44.00;;;;;;5097411;28;20032;-80
2022/07/07 01:34:38;;;;;;;0.10;0.10;;;27.50;45.70;;;;;;5094105;28;20055;-80
2022/07/07 01:37:05;;;;;;;0.00;0.00;;;27.30;47.60;;;;;;5094604;28;20020;-80
2022/07/07 01:39:31;;;;;;;0.00;0.00;;;27.30;47.90;;;;;;5095744;28;20024;-80
2022/07/07 01:41:58;;;;;;;0.00;0.00;;;27.00;49.20;;;;;;5094338;28;20020;-79
2022/07/07 01:44:24;;;;;;;0.00;0.00;;;26.50;48.10;;;;;;5089435;28;20560;-80
2022/07/07 01:46:50;;;;;;;0.00;0.00;;;26.30;50.00;;;;;;5121380;27;20040;-80
2022/07/07 01:49:17;;;;;;;0.00;0.00;;;26.30;50.00;;;;;;5095702;28;20073;-80
2022/07/07 01:51:43;;;;;;;0.00;0.00;;;26.30;50.50;;;;;;5088797;28;21097;-80
2022/07/07 01:54:10;;;;;;;0.00;0.00;;;26.00;52.70;;;;;;5092182;28;20519;-80
2022/07/07 01:56:36;;;;;;;0.00;0.00;;;25.80;52.10;;;;;;5112376;27;20395;-79
2022/07/07 01:59:03;;;;;;;0.00;0.00;;;25.60;53.40;;;;;;5096995;28;20024;-79
2022/07/07 02:01:29;;;;;;;0.00;0.00;;;25.70;48.80;;;;;;5106225;27;20028;-78
2022/07/07 02:03:55;;;;;;;0.03;0.03;;;25.80;48.10;;;;;;5099500;28;20048;-80
2022/07/07 02:06:21;;;;;;;0.00;0.00;;;25.80;47.80;;;;;;5097365;28;20122;-79
2022/07/07 02:08:47;;;;;;;0.00;0.00;;;25.80;50.40;;;;;;5105823;27;20020;-80
2022/07/07 02:11:13;;;;;;;0.00;0.00;;;25.60;49.70;;;;;;5106790;28;20038;-77
2022/07/07 02:13:44;;;;;;;5.03;0.70;;;25.30;50.30;;;;;;5106697;27;20028;-79
2022/07/07 02:16:14;;;;;;;0.00;0.00;;;25.10;51.80;;;;;;5095553;28;20027;-79
2022/07/07 02:18:42;;;;;;;7.18;6.72;;;24.90;53.60;;;;;;5094626;28;20020;-80
2022/07/07 02:21:10;;;;;;;2.45;2.35;;;24.90;54.00;;;;;;5108236;27;20102;-81
2022/07/07 02:23:38;;;;;;;0.52;0.52;;;25.00;52.50;;;;;;5114342;28;20492;-80
2022/07/07 02:26:05;;;;;;;0.00;0.00;;;25.20;51.60;;;;;;5118812;27;20027;-81
2022/07/07 02:28:32;;;;;;;0.63;0.63;;;25.20;53.50;;;;;;5118233;28;20026;-80
2022/07/07 02:30:59;;;;;;;0.00;0.00;;;25.20;52.00;;;;;;5122994;28;20064;-81
2022/07/07 02:33:26;;;;;;;0.20;0.20;;;25.40;51.70;;;;;;5128218;28;20060;-78
2022/07/07 02:35:53;;;;;;;0.80;0.80;;;25.70;50.00;;;;;;5133384;27;20023;-79
2022/07/07 02:38:19;;;;;;;0.00;0.00;;;25.40;51.20;;;;;;5131407;27;20024;-80
2022/07/07 02:40:45;;;;;;;0.00;0.00;;;25.70;50.90;;;;;;5097458;28;20027;-80
2022/07/07 02:43:12;;;;;;;0.28;0.28;;;25.90;53.50;;;;;;5116905;27;20463;-79
2022/07/07 02:45:43;;;;;;;0.20;0.20;;;26.20;53.70;;;;;;5127371;27;20047;-79
2022/07/07 02:48:10;;;;;;;0.00;0.00;;;26.30;48.90;;;;;;5114667;27;20030;-79
2022/07/07 02:50:37;;;;;;;0.00;0.00;;;26.50;48.10;;;;;;5116497;27;20024;-79
2022/07/07 02:53:04;;;;;;;6.22;6.00;;;26.20;53.70;;;;;;5120223;27;20073;-79
2022/07/07 02:55:30;;;;;;;0.57;0.57;;;25.90;55.30;;;;;;5114398;27;20029;-78
2022/07/07 02:58:00;;;;;;;0.00;0.00;;;25.90;55.10;;;;;;5129963;27;20090;-80
2022/07/07 03:00:27;;;;;;;0.00;0.00;;;25.90;56.00;;;;;;5135934;27;20020;-79
2022/07/07 03:02:54;;;;;;;0.17;0.17;;;25.80;52.50;;;;;;5114207;28;20030;-80
2022/07/07 03:05:21;;;;;;;3.47;3.25;;;25.70;54.30;;;;;;5113460;28;20024;-79
2022/07/07 03:07:48;;;;;;;1.48;1.00;;;25.80;53.70;;;;;;5112254;28;20026;-79
2022/07/07 03:10:15;;;;;;;5.22;4.88;;;25.90;54.40;;;;;;5112803;27;20020;-80
2022/07/07 03:12:41;;;;;;;0.10;0.10;;;26.00;52.70;;;;;;5115320;27;20035;-79
2022/07/07 03:15:08;;;;;;;0.20;0.20;;;26.30;52.80;;;;;;5128976;27;20173;-82
2022/07/07 03:17:35;;;;;;;0.20;0.20;;;26.60;51.40;;;;;;5128639;27;21898;-80
2022/07/07 03:20:02;;;;;;;0.22;0.13;;;27.00;50.50;;;;;;5090476;28;20036;-79
2022/07/07 03:22:28;;;;;;;0.30;0.20;;;27.60;48.40;;;;;;5112314;28;20098;-79
2022/07/07 03:24:54;;;;;;;2.88;0.40;;;27.90;47.60;;;;;;5117525;27;20153;-79
2022/07/07 03:27:20;;;;;;;0.00;0.00;;;28.30;44.80;;;;;;5114644;27;20103;-80
2022/07/07 03:29:46;;;;;;;0.52;0.47;;;28.70;42.20;;;;;;5111427;28;20016;-79
2022/07/07 03:32:12;;;;;;;0.00;0.00;;;28.40;43.80;;;;;;5095246;28;20089;-77
2022/07/07 03:34:38;;;;;;;2.30;2.10;;;28.00;45.30;;;;;;5111612;28;20019;-76
2022/07/07 03:37:05;;;;;;;0.00;0.00;;;27.70;46.40;;;;;;5112515;28;20498;-78
2022/07/07 03:39:31;;;;;;;0.00;0.00;;;28.00;46.50;;;;;;5112652;28;20023;-78
2022/07/07 03:41:57;;;;;;;0.00;0.00;;;28.20;44.60;;;;;;5096030;28;20032;-77
2022/07/07 03:44:23;;;;;;;0.00;0.00;;;28.20;44.00;;;;;;5092847;28;20038;-79
2022/07/07 03:46:49;;;;;;;0.00;0.00;;;28.40;45.40;;;;;;5111425;28;20490;-79
2022/07/07 03:49:15;;;;;;;0.00;0.00;;;28.60;47.80;;;;;;5092816;28;20024;-80
2022/07/07 03:51:41;;;;;;;0.00;0.00;;;28.80;46.90;;;;;;5111797;28;20027;-80
2022/07/07 03:54:07;;;;;;;0.00;0.00;;;28.70;48.60;;;;;;5092731;28;20074;-78
2022/07/07 03:56:33;;;;;;;0.10;0.10;;;28.50;44.30;;;;;;5114941;27;20027;-78
2022/07/07 03:59:08;;;;;;;0.00;0.00;;;28.20;44.40;;;;;;5094174;28;20045;-77
2022/07/07 04:01:36;;;;;;;0.00;0.00;;;27.70;45.60;;;;;;5112042;28;20023;-77
2022/07/07 04:04:04;;;;;;;0.15;0.15;;;27.40;47.60;;;;;;5113134;28;20019;-80
2022/07/07 04:06:31;;;;;;;0.15;0.15;;;27.10;49.40;;;;;;5119194;28;20476;-82
2022/07/07 04:08:58;;;;;;;13.63;3.47;;;27.10;47.50;;;;;;5110388;28;20107;-82
2022/07/07 04:11:24;;;;;;;0.88;0.55;;;27.00;47.40;;;;;;5112809;28;20027;-83
2022/07/07 04:13:50;;;;;;;2.78;0.88;;;27.00;48.00;;;;;;5096331;28;20020;-84
2022/07/07 04:16:16;;;;;;;0.17;0.17;;;27.10;47.40;;;;;;5112230;28;20020;-85
2022/07/07 04:18:42;;;;;;;2.38;2.25;;;27.20;48.20;;;;;;5111111;28;20019;-86
2022/07/07 04:21:08;;;;;;;0.10;0.10;;;27.50;46.60;;;;;;5092692;28;20020;-84
2022/07/07 04:23:34;;;;;;;0.00;0.00;;;27.70;47.60;;;;;;5126014;28;20482;-81
2022/07/07 04:26:00;;;;;;;0.00;0.00;;;27.90;46.00;;;;;;5092672;28;20104;-81
2022/07/07 04:28:28;;;;;;;0.10;0.10;;;28.30;45.50;;;;;;5110549;28;20024;-83
2022/07/07 04:30:54;;;;;;;0.20;0.20;;;28.60;48.90;;;;;;5109348;28;20019;-81
2022/07/07 04:33:20;;;;;;;3.30;1.65;;;28.70;45.40;;;;;;5111681;28;20019;-84
2022/07/07 04:35:46;;;;;;;5.18;1.20;;;28.80;43.90;;;;;;5110984;28;20024;-82
2022/07/07 04:38:13;;;;;;;0.00;0.00;;;28.70;44.30;;;;;;5109283;28;20039;-82
2022/07/07 04:40:40;;;;;;;0.10;0.10;;;28.60;45.00;;;;;;5090664;28;20034;-80
2022/07/07 04:43:07;;;;;;;0.00;0.00;;;28.80;43.60;;;;;;5105588;28;20023;-80
2022/07/07 04:45:34;;;;;;;1.30;0.77;;;29.00;42.20;;;;;;5091480;28;20448;-79
2022/07/07 04:48:00;;;;;;;1.13;1.02;;;28.90;42.90;;;;;;5110208;28;20506;-80
2022/07/07 04:50:27;;;;;;;0.10;0.10;;;29.10;42.40;;;;;;5090998;28;20019;-83
2022/07/07 04:52:53;;;;;;;5.15;4.28;;;29.00;42.10;;;;;;5112902;28;20027;-80
2022/07/07 04:55:19;;;;;;;0.00;0.00;;;28.90;42.00;;;;;;5076565;28;20058;-79
2022/07/07 04:57:45;;;;;;;0.00;0.00;;;28.90;40.90;;;;;;5073397;28;20119;-80
2022/07/07 05:00:12;;;;;;;0.00;0.00;;;29.10;40.60;;;;;;5076014;28;20024;-81
2022/07/07 05:02:38;;;;;;;0.40;0.40;;;29.10;40.10;;;;;;5072156;28;20108;-81
2022/07/07 05:05:06;;;;;;;0.00;0.00;;;29.50;40.30;;;;;;5070746;28;20024;-81
2022/07/07 05:07:33;;;;;;;1.35;0.43;;;29.80;39.70;;;;;;5088796;28;20043;-81
2022/07/07 05:09:59;;;;;;;0.30;0.15;;;29.60;39.30;;;;;;5091865;28;20031;-80
2022/07/07 05:12:26;;;;;;;0.00;0.00;;;29.10;39.40;;;;;;5095813;28;20016;-80
2022/07/07 05:14:52;;;;;;;0.00;0.00;;;29.50;39.50;;;;;;5101889;28;20066;-80
2022/07/07 05:17:18;;;;;;;0.52;0.10;;;29.70;37.90;;;;;;5074177;28;20020;-80
2022/07/07 05:19:44;;;;;;;0.32;0.32;;;29.60;38.30;;;;;;5073265;28;20458;-80
2022/07/07 05:22:10;;;;;;;0.00;0.00;;;29.60;37.80;;;;;;5089978;28;20031;-80
2022/07/07 05:24:36;;;;;;;0.00;0.00;;;29.40;37.20;;;;;;5089693;28;20068;-81
2022/07/07 05:27:03;;;;;;;0.00;0.00;;;29.30;37.60;;;;;;5072323;28;20020;-82
2022/07/07 05:29:29;;;;;;;0.00;0.00;;;29.40;40.60;;;;;;5091505;28;20031;-82
2022/07/07 05:31:55;;;;;;;0.10;0.10;;;29.30;38.30;;;;;;5099002;28;20016;-80
2022/07/07 05:34:21;;;;;;;0.00;0.00;;;29.10;39.90;;;;;;5106599;28;20064;-80
2022/07/07 05:36:47;;;;;;;0.00;0.00;;;29.10;39.10;;;;;;5077231;28;20485;-81
2022/07/07 05:39:13;;;;;;;0.00;0.00;;;29.40;39.20;;;;;;5091711;28;20031;-82
2022/07/07 05:41:40;;;;;;;0.03;0.03;;;29.60;38.40;;;;;;5087801;28;20094;-84
2022/07/07 05:44:06;;;;;;;0.00;0.00;;;29.90;37.10;;;;;;5086641;28;20082;-85
2022/07/07 05:46:32;;;;;;;0.10;0.05;;;29.70;37.20;;;;;;5073852;28;20028;-84
2022/07/07 05:48:58;;;;;;;0.00;0.00;;;30.00;37.30;;;;;;5095847;28;20706;-83
2022/07/07 05:51:24;;;;;;;0.00;0.00;;;30.00;37.50;;;;;;5118050;28;20183;-83
2022/07/07 05:53:50;;;;;;;0.00;0.00;;;29.70;36.90;;;;;;5101207;28;20536;-79
2022/07/07 05:56:16;;;;;;;0.00;0.00;;;29.30;37.20;;;;;;5091720;28;20024;-80
2022/07/07 05:58:43;;;;;;;0.40;0.40;;;28.90;39.00;;;;;;5092173;28;20020;-80
2022/07/07 06:01:09;;;;;;;1.67;0.60;;;29.30;36.80;;;;;;5075504;28;20119;-80
2022/07/07 06:03:35;;;;;;;0.00;0.00;;;28.50;41.50;;;;;;5094512;28;20036;-80
2022/07/07 06:06:01;;;;;;;3.33;1.00;;;28.00;43.80;;;;;;5090197;28;20046;-78
2022/07/07 06:08:30;;;;;;;2.72;0.25;;;27.70;44.00;;;;;;5075009;28;20319;-79
2022/07/07 06:10:58;;;;;;;10.50;6.38;;;27.90;44.90;;;;;;5092541;28;20046;-78
2022/07/07 06:13:24;;;;;;;0.30;0.22;;;27.70;45.90;;;;;;5093846;28;20059;-76
2022/07/07 06:15:50;;;;;;;0.20;0.20;;;27.30;46.40;;;;;;5096252;28;20035;-77
2022/07/07 06:18:17;;;;;;;1.95;0.85;;;27.50;47.00;;;;;;5100509;28;20043;-77
2022/07/07 06:20:43;;;;;;;6.07;1.02;;;27.70;46.10;;;;;;5090359;28;20545;-77
2022/07/07 06:23:09;;;;;;;3.20;2.33;;;27.20;45.00;;;;;;5090764;28;20036;-78
2022/07/07 06:25:36;;;;;;;2.83;0.80;;;27.00;45.90;;;;;;5105329;28;20893;-78
2022/07/07 06:28:03;;;;;;;1.38;1.27;;;26.70;46.00;;;;;;5072129;28;20052;-79
2022/07/07 06:30:29;;;;;;;4.40;1.75;;;26.80;46.10;;;;;;5068257;28;20020;-79
2022/07/07 06:32:55;;;;;;;0.35;0.35;;;26.90;46.20;;;;;;5072827;28;20438;-81
2022/07/07 06:35:24;;;;;;;0.00;0.00;;;27.30;46.00;;;;;;5089130;28;20107;-79
2022/07/07 06:37:53;;;;;;;0.10;0.10;;;27.40;45.80;;;;;;5087651;28;20028;-79
2022/07/07 06:40:20;;;;;;;5.63;0.55;;;27.80;44.80;;;;;;5086306;28;20054;-81
2022/07/07 06:42:46;;;;;;;0.00;0.00;;;27.60;43.70;;;;;;5089219;28;20024;-81
2022/07/07 06:45:13;;;;;;;0.15;0.15;;;27.60;43.80;;;;;;5086867;28;20028;-80
2022/07/07 06:47:39;;;;;;;9.40;7.75;;;27.80;43.80;;;;;;5090408;28;20082;-80
2022/07/07 06:50:05;;;;;;;4.85;3.20;;;27.90;43.60;;;;;;5086259;28;20016;-81
2022/07/07 06:52:31;;;;;;;0.00;0.00;;;28.10;43.20;;;;;;5091801;28;20024;-78
2022/07/07 06:54:58;;;;;;;22.40;20.17;;;28.60;43.50;;;;;;5090528;28;20486;-80
2022/07/07 06:57:24;;;;;;;0.82;0.82;;;29.30;42.80;;;;;;5108556;27;20027;-78
2022/07/07 06:59:50;;;;;;;5.72;2.08;;;29.30;43.20;;;;;;5089817;27;20024;-79
2022/07/07 07:02:16;;;;;;;4.97;3.55;;;29.40;43.30;;;;;;5108400;27;20023;-79
2022/07/07 07:04:42;;;;;;;1.45;1.13;;;29.20;42.70;;;;;;5105034;27;20031;-81
2022/07/07 07:07:08;;;;;;;8.88;1.63;;;29.10;42.50;;;;;;5091114;28;20377;-82
2022/07/07 07:09:34;;;;;;;0.52;0.52;;;29.10;41.80;;;;;;5106870;28;20015;-76
2022/07/07 07:12:00;;;;;;;2.03;1.38;;;29.10;40.10;;;;;;5111384;27;20023;-76
2022/07/07 07:14:26;;;;;;;9.13;3.58;;;29.20;40.90;;;;;;5111657;28;20103;-76
2022/07/07 07:16:52;;;;;;;7.68;1.55;;;28.70;42.20;;;;;;5107746;27;20352;-77
2022/07/07 07:19:18;;;;;;;0.10;0.10;;;28.00;42.00;;;;;;5108324;27;20039;-78
2022/07/07 07:21:44;;;;;;;0.90;0.40;;;27.80;43.50;;;;;;5090947;28;20043;-78
2022/07/07 07:24:12;;;;;;;5.90;3.60;;;28.00;43.00;;;;;;5109653;27;20031;-78
2022/07/07 07:26:38;;;;;;;0.20;0.20;;;28.20;42.90;;;;;;5104668;28;20364;-78
2022/07/07 07:29:04;;;;;;;0.30;0.30;;;27.50;44.20;;;;;;5093405;28;20019;-77
2022/07/07 07:31:30;;;;;;;0.00;0.00;;;27.20;44.90;;;;;;5109537;28;20533;-78
2022/07/07 07:33:56;;;;;;;0.57;0.17;;;27.30;45.80;;;;;;5107793;28;20024;-78
2022/07/07 07:36:22;;;;;;;0.28;0.05;;;27.40;44.60;;;;;;5106043;27;20114;-78
2022/07/07 07:38:50;;;;;;;8.30;1.35;;;27.60;44.70;;;;;;5079655;28;20070;-79
2022/07/07 07:41:18;;;;;;;0.15;0.10;;;26.90;49.40;;;;;;5106406;27;20054;-79
2022/07/07 07:43:44;;;;;;;0.28;0.28;;;26.20;63.60;;;;;;5107731;27;20023;-79
2022/07/07 07:46:10;;;;;;;3.40;3.20;;;25.60;57.50;;;;;;5088313;28;20062;-81
2022/07/07 07:48:36;;;;;;;0.00;0.00;;;25.50;57.60;;;;;;5109039;28;20019;-80
2022/07/07 07:51:02;;;;;;;0.00;0.00;;;25.40;54.60;;;;;;5107506;27;21029;-80
2022/07/07 07:53:28;;;;;;;0.10;0.10;;;25.50;56.70;;;;;;5093245;27;20193;-80
2022/07/07 07:55:57;;;;;;;0.00;0.00;;;26.00;54.80;;;;;;5097186;28;20445;-80
2022/07/07 07:58:23;;;;;;;0.85;0.75;;;26.40;53.20;;;;;;5108952;28;20102;-79
2022/07/07 08:00:55;;;;;;;0.00;0.00;;;26.30;50.20;;;;;;5099559;28;20032;-80
2022/07/07 08:03:21;;;;;;;0.20;0.17;;;26.10;52.10;;;;;;5087325;28;20023;-79
2022/07/07 08:05:47;;;;;;;0.00;0.00;;;26.70;50.60;;;;;;5109881;28;20475;-80
2022/07/07 08:08:13;;;;;;;12.73;0.32;;;27.40;49.60;;;;;;5106637;28;20027;-77
2022/07/07 08:10:39;;;;;;;0.00;0.00;;;28.00;48.40;;;;;;5101959;28;20109;-79
2022/07/07 08:13:05;;;;;;;2.10;1.10;;;28.20;47.30;;;;;;5101265;28;20396;-77
2022/07/07 08:15:31;;;;;;;0.47;0.47;;;28.30;47.40;;;;;;5093801;28;20074;-78
2022/07/07 08:17:57;;;;;;;0.08;0.08;;;28.60;47.20;;;;;;5095650;28;20034;-78
2022/07/07 08:20:23;;;;;;;0.10;0.08;;;28.70;46.10;;;;;;5090269;28;20031;-80
2022/07/07 08:22:49;;;;;;;3.83;0.20;;;28.50;45.80;;;;;;5090073;28;20031;-80
2022/07/07 08:25:16;;;;;;;0.32;0.25;;;28.00;45.80;;;;;;5093683;28;20352;-80
2022/07/07 08:27:42;;;;;;;0.13;0.13;;;28.10;45.90;;;;;;5096547;28;20016;-81
2022/07/07 08:30:08;;;;;;;2.83;1.35;;;28.00;46.20;;;;;;5111967;28;21845;-81
2022/07/07 08:32:34;;;;;;;0.10;0.10;;;27.90;46.30;;;;;;5124349;28;20023;-80
2022/07/07 08:35:02;;;;;;;0.20;0.20;;;26.90;47.90;;;;;;5107156;28;20031;-82
2022/07/07 08:37:28;;;;;;;0.00;0.00;;;26.70;49.70;;;;;;5088258;28;20070;-82
2022/07/07 08:39:55;;;;;;;0.00;0.00;;;27.10;49.40;;;;;;5090525;28;20028;-82
2022/07/07 08:42:21;;;;;;;0.00;0.00;;;27.70;47.90;;;;;;5089939;28;20114;-81
2022/07/07 08:44:47;;;;;;;0.20;0.20;;;28.20;47.30;;;;;;5109201;28;20022;-83
2022/07/07 08:47:14;;;;;;;0.00;0.00;;;28.50;46.60;;;;;;5089928;28;20024;-79
2022/07/07 08:49:40;;;;;;;0.00;0.00;;;28.50;46.90;;;;;;5107839;28;20080;-79
2022/07/07 08:52:06;;;;;;;0.00;0.00;;;28.10;47.80;;;;;;5090886;28;20424;-81
2022/07/07 08:54:33;;;;;;;0.00;0.00;;;28.30;47.70;;;;;;5105812;28;20043;-81
2022/07/07 08:57:00;;;;;;;10.38;9.63;;;27.80;47.80;;;;;;5117858;27;20072;-81
2022/07/07 08:59:26;;;;;;;0.00;0.00;;;28.20;47.00;;;;;;5122844;27;20020;-81
2022/07/07 09:01:57;;;;;;;0.03;0.03;;;28.30;46.80;;;;;;5135457;27;20028;-79
2022/07/07 09:04:24;;;;;;;0.00;0.00;;;28.30;46.20;;;;;;5096960;28;20024;-80
2022/07/07 09:06:58;;;;;;;0.00;0.00;;;28.50;45.80;;;;;;5111444;28;20063;-80
2022/07/07 09:09:28;;;;;;;0.00;0.00;;;28.80;44.70;;;;;;5108826;28;20020;-80
2022/07/07 09:12:01;;;;;;;0.10;0.10;;;29.00;44.90;;;;;;5111525;27;20035;-79
2022/07/07 09:14:45;;;;;;;0.00;0.00;;;29.10;44.30;;;;;;5114393;28;20039;-79
2022/07/07 09:17:45;;;;;;;3.50;1.50;;;29.30;45.10;;;;;;5109454;28;20027;-77
2022/07/07 09:20:12;;;;;;;0.00;0.00;;;28.70;45.40;;;;;;5091227;28;20109;-78
2022/07/07 09:22:52;;;;;;;0.10;0.10;;;28.60;46.50;;;;;;5092776;28;20027;-80
2022/07/07 09:25:20;;;;;;;12.40;10.65;;;28.00;47.40;;;;;;5112723;28;20383;-80
2022/07/07 09:27:55;;;;;;;0.00;0.00;;;28.40;46.60;;;;;;5091604;27;20023;-78
2022/07/07 09:30:37;;;;;;;0.22;0.17;;;28.50;45.50;;;;;;5112238;27;20032;-79
2022/07/07 09:33:13;;;;;;;0.00;0.00;;;28.40;46.50;;;;;;5117953;28;20032;-80
2022/07/07 09:38:31;;;;;;;0.00;0.00;;;28.10;46.20;;;;;;5116287;27;20069;-78
2022/07/07 09:41:04;;;;;;;0.00;0.00;;;28.20;45.70;;;;;;5095282;28;20402;-76
2022/07/07 09:43:36;;;;;;;0.00;0.00;;;28.70;45.50;;;;;;5109774;28;20035;-82
2022/07/07 09:46:11;;;;;;;1.08;1.08;;;28.90;45.10;;;;;;5097597;28;20158;-77
2022/07/07 09:48:40;;;;;;;0.00;0.00;;;29.10;44.20;;;;;;5114708;28;20544;-76
2022/07/07 09:51:24;;;;;;;0.38;0.38;;;28.90;44.20;;;;;;5093216;28;20081;-77
2022/07/07 09:54:02;;;;;;;0.00;0.00;;;29.00;44.30;;;;;;5082896;28;20047;-75
2022/07/07 09:56:31;;;;;;;0.00;0.00;;;29.00;42.60;;;;;;5089634;28;20020;-77
2022/07/07 09:58:58;;;;;;;0.05;0.05;;;29.20;43.30;;;;;;5070933;28;20419;-76
2022/07/07 10:01:29;;;;;;;0.00;0.00;;;29.20;42.90;;;;;;5072403;28;20136;-77
2022/07/07 10:04:04;;;;;;;0.00;0.00;;;28.80;43.20;;;;;;5075796;28;20536;-77
2022/07/07 10:06:32;;;;;;;2.47;2.38;;;28.90;42.10;;;;;;5092273;28;20024;-78
2022/07/07 10:09:05;;;;;;;0.65;0.65;;;28.80;42.40;;;;;;5070036;28;20078;-77
2022/07/07 10:11:34;;;;;;;0.00;0.00;;;28.70;42.50;;;;;;5089247;28;20027;-77
2022/07/07 10:14:08;;;;;;;0.00;0.00;;;28.70;42.90;;;;;;5086850;28;20019;-76
2022/07/07 10:16:35;;;;;;;0.00;0.00;;;29.10;42.80;;;;;;5073772;28;20027;-77
2022/07/07 10:19:02;;;;;;;0.00;0.00;;;29.10;43.70;;;;;;5090062;28;20036;-76
2022/07/07 10:21:28;;;;;;;0.00;0.00;;;29.10;42.70;;;;;;5088004;28;20103;-76
2022/07/07 10:23:55;;;;;;;0.00;0.00;;;29.40;42.50;;;;;;5072841;28;20036;-77
2022/07/07 10:26:39;;;;;;;0.00;0.00;;;29.40;41.70;;;;;;5074760;28;20051;-77
2022/07/07 10:29:08;;;;;;;0.00;0.00;;;29.30;40.90;;;;;;5086089;28;20020;-78
2022/07/07 10:31:34;;;;;;;0.00;0.00;;;29.40;41.10;;;;;;5070939;28;20048;-77
2022/07/07 10:34:06;;;;;;;0.00;0.00;;;29.20;42.00;;;;;;5086705;28;20030;-76
2022/07/07 10:36:50;;;;;;;0.00;0.00;;;28.90;42.20;;;;;;5088486;28;20097;-76
2022/07/07 10:39:18;;;;;;;0.00;0.00;;;28.80;41.40;;;;;;5084431;28;20028;-76
2022/07/07 10:42:06;;;;;;;0.03;0.03;;;29.10;39.00;;;;;;5083251;28;20028;-78
2022/07/07 10:44:38;;;;;;;0.00;0.00;;;29.20;38.10;;;;;;5088772;28;20369;-80
2022/07/07 10:47:24;;;;;;;0.00;0.00;;;29.40;37.80;;;;;;5086664;28;20073;-81
2022/07/07 10:49:58;;;;;;;0.00;0.00;;;29.40;37.80;;;;;;5069434;28;20032;-80
2022/07/07 10:52:40;;;;;;;0.00;0.00;;;28.90;38.90;;;;;;5070519;28;20024;-80
2022/07/07 10:55:07;;;;;;;6.18;5.93;;;28.90;38.70;;;;;;5109170;27;20059;-80
2022/07/07 10:57:42;;;;;;;0.00;0.00;;;28.80;38.60;;;;;;5097110;28;20483;-80
2022/07/07 11:00:09;;;;;;;1.08;1.08;;;29.10;37.90;;;;;;5094855;28;20426;-81
2022/07/07 11:03:07;;;;;;;0.00;0.00;;;29.20;36.50;;;;;;5094565;28;20031;-80
2022/07/07 11:05:34;;;;;;;0.88;0.30;;;29.00;37.40;;;;;;5105825;28;20048;-82
2022/07/07 11:08:00;;;;;;;1.55;1.00;;;28.70;37.70;;;;;;5102240;28;20035;-80
2022/07/07 11:10:47;;;;;;;0.00;0.00;;;28.40;38.30;;;;;;5110672;28;20115;-81
2022/07/07 11:13:32;;;;;;;0.00;0.00;;;28.30;38.30;;;;;;5112751;27;20475;-84
2022/07/07 11:16:30;;;;;;;0.00;0.00;;;28.60;38.10;;;;;;5103853;28;20031;-79
2022/07/07 11:18:58;;;;;;;0.00;0.00;;;28.50;38.70;;;;;;5095347;28;20533;-78
2022/07/07 11:21:46;;;;;;;3.20;0.80;;;28.40;40.40;;;;;;5098533;28;20024;-82
2022/07/07 11:24:23;;;;;;;0.00;0.00;;;28.40;38.70;;;;;;5089249;28;20024;-80
2022/07/07 11:27:03;;;;;;;0.00;0.00;;;28.50;39.20;;;;;;5138417;27;20032;-80
2022/07/07 11:29:30;;;;;;;2.08;0.68;;;28.70;38.60;;;;;;5113819;27;20019;-81
2022/07/07 11:32:07;;;;;;;0.00;0.00;;;28.70;38.30;;;;;;5093884;28;20016;-80
2022/07/07 11:34:50;;;;;;;0.00;0.00;;;28.40;39.40;;;;;;5095290;28;20476;-81
2022/07/07 11:37:21;;;;;;;0.00;0.00;;;28.10;40.10;;;;;;5112816;27;20024;-79
2022/07/07 11:39:47;;;;;;;1.85;1.10;;;28.00;39.70;;;;;;5096840;28;20030;-84
2022/07/07 11:42:13;;;;;;;0.00;0.00;;;27.90;40.40;;;;;;5114271;27;20023;-81
2022/07/07 11:44:39;;;;;;;9.45;8.77;;;28.20;40.60;;;;;;5106834;28;20031;-82
2022/07/07 11:47:06;;;;;;;2.97;2.25;;;28.30;40.40;;;;;;5111476;27;20027;-82
2022/07/07 11:49:32;;;;;;;0.10;0.10;;;28.20;40.00;;;;;;5110146;27;20464;-81
2022/07/07 11:51:58;;;;;;;0.00;0.00;;;28.20;39.60;;;;;;5111475;28;20023;-80
2022/07/07 11:54:24;;;;;;;0.00;0.00;;;28.30;39.00;;;;;;5101662;28;20044;-83
2022/07/07 11:56:50;;;;;;;0.00;0.00;;;28.20;39.40;;;;;;5107809;27;20020;-80
2022/07/07 11:59:32;;;;;;;0.20;0.20;;;28.00;40.40;;;;;;5102303;27;20443;-78
2022/07/07 12:01:58;;;;;;;1.00;1.00;;;28.00;39.40;;;;;;5084821;28;20024;-77
2022/07/07 12:04:24;;;;;;;0.70;0.70;;;28.10;39.50;;;;;;5083636;28;20086;-77
2022/07/07 12:06:51;;;;;;;0.43;0.43;;;28.20;39.90;;;;;;5080323;28;20550;-77
2022/07/07 12:09:17;;;;;;;0.00;0.00;;;28.00;40.50;;;;;;5084768;28;20107;-78
2022/07/07 12:11:44;;;;;;;0.00;0.00;;;27.80;41.40;;;;;;5086840;28;20031;-78
2022/07/07 12:14:11;;;;;;;0.35;0.35;;;27.60;41.40;;;;;;5084651;28;20031;-77
2022/07/07 12:16:49;;;;;;;0.20;0.20;;;27.50;41.50;;;;;;5087380;28;20047;-77
2022/07/07 12:19:16;;;;;;;0.00;0.00;;;27.60;41.80;;;;;;5086022;28;20028;-78
2022/07/07 12:21:47;;;;;;;0.00;0.00;;;27.60;42.00;;;;;;5086527;28;20031;-77
2022/07/07 12:24:18;;;;;;;0.45;0.45;;;27.70;41.90;;;;;;5085364;28;20029;-77
2022/07/07 12:26:49;;;;;;;0.20;0.10;;;27.80;41.50;;;;;;5083694;28;20032;-75
2022/07/07 12:29:20;;;;;;;0.00;0.00;;;27.70;41.50;;;;;;5083464;28;20028;-75
2022/07/07 12:31:48;;;;;;;0.00;0.00;;;27.60;41.90;;;;;;5085343;28;20037;-76
2022/07/07 12:34:16;;;;;;;1.27;0.38;;;27.50;42.20;;;;;;5087366;28;20024;-76
2022/07/07 12:36:44;;;;;;;0.00;0.00;;;27.40;42.60;;;;;;5088754;28;20056;-76
2022/07/07 12:39:10;;;;;;;0.00;0.00;;;27.40;42.60;;;;;;5084304;28;20020;-78
2022/07/07 12:41:38;;;;;;;0.00;0.00;;;27.40;42.90;;;;;;5086748;28;20039;-77
2022/07/07 12:44:29;;;;;;;0.00;0.00;;;27.60;43.10;;;;;;5092836;28;20020;-77
2022/07/07 12:46:57;;;;;;;0.00;0.00;;;27.40;43.30;;;;;;5089029;28;20016;-78
2022/07/07 12:49:23;;;;;;;0.30;0.28;;;27.20;43.90;;;;;;5098129;28;20032;-77
2022/07/07 12:51:51;;;;;;;0.00;0.00;;;27.20;43.40;;;;;;5088777;28;20069;-75
2022/07/07 12:54:25;;;;;;;0.00;0.00;;;27.40;43.60;;;;;;5081817;28;20029;-78